sensor_id;sensor_type;location;lat;lon;timestamp;P1;durP1;ratioP1;P2;durP2;ratioP2
34711;SDS011;20941;42.408;25.634;2022-12-18T00:01:29;9.75;;;7.20;;
34711;SDS011;20941;42.408;25.634;2022-12-18T00:03:58;11.77;;;6.95;;
34711;SDS011;20941;42.408;25.634;2022-12-18T00:06:25;11.77;;;6.97;;
34711;SDS011;20941;42.408;25.634;2022-12-18T00:08:52;14.93;;;8.25;;
34711;SDS011;20941;42.408;25.634;2022-12-18T00:11:19;14.45;;;9.10;;
34711;SDS011;20941;42.408;25.634;2022-12-18T00:13:46;16.02;;;10.23;;
34711;SDS011;20941;42.408;25.634;2022-12-18T00:16:13;16.92;;;11.15;;
34711;SDS011;20941;42.408;25.634;2022-12-18T00:18:41;25.02;;;12.50;;
34711;SDS011;20941;42.408;25.634;2022-12-18T00:21:08;19.05;;;12.27;;
34711;SDS011;20941;42.408;25.634;2022-12-18T00:23:36;21.38;;;13.13;;
34711;SDS011;20941;42.408;25.634;2022-12-18T00:26:03;21.65;;;13.48;;
34711;SDS011;20941;42.408;25.634;2022-12-18T00:28:30;29.55;;;15.77;;
34711;SDS011;20941;42.408;25.634;2022-12-18T00:31:05;24.23;;;15.05;;
34711;SDS011;20941;42.408;25.634;2022-12-18T00:33:38;27.20;;;15.48;;
34711;SDS011;20941;42.408;25.634;2022-12-18T00:36:07;29.05;;;17.33;;
34711;SDS011;20941;42.408;25.634;2022-12-18T00:38:35;30.67;;;18.05;;
34711;SDS011;20941;42.408;25.634;2022-12-18T00:41:01;32.65;;;18.88;;
34711;SDS011;20941;42.408;25.634;2022-12-18T00:43:27;33.55;;;18.95;;
34711;SDS011;20941;42.408;25.634;2022-12-18T00:45:53;30.75;;;18.13;;
34711;SDS011;20941;42.408;25.634;2022-12-18T00:48:19;31.55;;;19.75;;
34711;SDS011;20941;42.408;25.634;2022-12-18T00:50:44;29.73;;;16.48;;
34711;SDS011;20941;42.408;25.634;2022-12-18T00:53:10;32.58;;;18.48;;
34711;SDS011;20941;42.408;25.634;2022-12-18T00:55:37;31.55;;;18.45;;
34711;SDS011;20941;42.408;25.634;2022-12-18T00:58:04;31.63;;;17.95;;
34711;SDS011;20941;42.408;25.634;2022-12-18T01:00:30;31.83;;;17.17;;
34711;SDS011;20941;42.408;25.634;2022-12-18T01:02:55;34.08;;;16.73;;
34711;SDS011;20941;42.408;25.634;2022-12-18T01:05:21;29.42;;;16.27;;
34711;SDS011;20941;42.408;25.634;2022-12-18T01:07:46;30.77;;;16.40;;
34711;SDS011;20941;42.408;25.634;2022-12-18T01:10:12;26.13;;;13.93;;
34711;SDS011;20941;42.408;25.634;2022-12-18T01:12:38;27.40;;;14.30;;
34711;SDS011;20941;42.408;25.634;2022-12-18T01:15:04;25.30;;;14.80;;
34711;SDS011;20941;42.408;25.634;2022-12-18T01:17:31;22.45;;;14.43;;
34711;SDS011;20941;42.408;25.634;2022-12-18T01:19:57;23.08;;;13.85;;
34711;SDS011;20941;42.408;25.634;2022-12-18T01:22:22;20.63;;;12.57;;
34711;SDS011;20941;42.408;25.634;2022-12-18T01:24:48;22.98;;;13.82;;
34711;SDS011;20941;42.408;25.634;2022-12-18T01:27:13;31.92;;;16.80;;
34711;SDS011;20941;42.408;25.634;2022-12-18T01:29:39;33.55;;;19.38;;
34711;SDS011;20941;42.408;25.634;2022-12-18T01:32:05;37.38;;;20.88;;
34711;SDS011;20941;42.408;25.634;2022-12-18T01:34:30;42.58;;;22.05;;
34711;SDS011;20941;42.408;25.634;2022-12-18T01:36:56;41.30;;;22.58;;
34711;SDS011;20941;42.408;25.634;2022-12-18T01:39:21;41.90;;;21.77;;
34711;SDS011;20941;42.408;25.634;2022-12-18T01:41:47;38.22;;;20.40;;
34711;SDS011;20941;42.408;25.634;2022-12-18T01:47:25;38.72;;;21.52;;
34711;SDS011;20941;42.408;25.634;2022-12-18T01:49:57;37.55;;;20.02;;
34711;SDS011;20941;42.408;25.634;2022-12-18T01:52:29;34.38;;;19.42;;
34711;SDS011;20941;42.408;25.634;2022-12-18T01:54:57;35.97;;;20.00;;
34711;SDS011;20941;42.408;25.634;2022-12-18T01:57:25;36.97;;;18.75;;
34711;SDS011;20941;42.408;25.634;2022-12-18T01:59:52;36.22;;;18.95;;
34711;SDS011;20941;42.408;25.634;2022-12-18T02:02:22;41.10;;;19.02;;
34711;SDS011;20941;42.408;25.634;2022-12-18T02:04:47;36.70;;;19.77;;
34711;SDS011;20941;42.408;25.634;2022-12-18T02:07:17;40.05;;;19.58;;
34711;SDS011;20941;42.408;25.634;2022-12-18T02:10:06;38.75;;;19.83;;
34711;SDS011;20941;42.408;25.634;2022-12-18T02:12:42;38.30;;;19.63;;
34711;SDS011;20941;42.408;25.634;2022-12-18T02:15:47;35.00;;;18.88;;
34711;SDS011;20941;42.408;25.634;2022-12-18T02:18:43;28.07;;;14.47;;
34711;SDS011;20941;42.408;25.634;2022-12-18T02:21:18;36.80;;;19.30;;
34711;SDS011;20941;42.408;25.634;2022-12-18T02:26:57;37.70;;;19.27;;
34711;SDS011;20941;42.408;25.634;2022-12-18T02:29:34;43.53;;;20.88;;
34711;SDS011;20941;42.408;25.634;2022-12-18T02:32:05;37.38;;;20.58;;
34711;SDS011;20941;42.408;25.634;2022-12-18T02:34:36;39.90;;;19.70;;
34711;SDS011;20941;42.408;25.634;2022-12-18T02:37:05;38.60;;;19.90;;
34711;SDS011;20941;42.408;25.634;2022-12-18T02:39:36;35.67;;;19.95;;
34711;SDS011;20941;42.408;25.634;2022-12-18T02:42:05;37.40;;;20.13;;
34711;SDS011;20941;42.408;25.634;2022-12-18T02:44:34;38.63;;;20.00;;
34711;SDS011;20941;42.408;25.634;2022-12-18T02:47:08;37.20;;;19.38;;
34711;SDS011;20941;42.408;25.634;2022-12-18T02:55:11;40.90;;;20.00;;
34711;SDS011;20941;42.408;25.634;2022-12-18T02:57:54;40.15;;;20.88;;
34711;SDS011;20941;42.408;25.634;2022-12-18T03:00:24;39.85;;;19.50;;
34711;SDS011;20941;42.408;25.634;2022-12-18T03:02:58;42.55;;;21.10;;
34711;SDS011;20941;42.408;25.634;2022-12-18T03:05:39;42.10;;;21.27;;
34711;SDS011;20941;42.408;25.634;2022-12-18T03:08:29;39.67;;;19.92;;
34711;SDS011;20941;42.408;25.634;2022-12-18T03:11:09;39.03;;;19.00;;
34711;SDS011;20941;42.408;25.634;2022-12-18T03:13:43;37.38;;;18.52;;
34711;SDS011;20941;42.408;25.634;2022-12-18T03:16:16;34.85;;;18.83;;
34711;SDS011;20941;42.408;25.634;2022-12-18T03:18:58;36.70;;;19.55;;
34711;SDS011;20941;42.408;25.634;2022-12-18T03:21:28;37.10;;;19.95;;
34711;SDS011;20941;42.408;25.634;2022-12-18T03:24:00;39.45;;;20.00;;
34711;SDS011;20941;42.408;25.634;2022-12-18T03:26:30;39.63;;;20.48;;
34711;SDS011;20941;42.408;25.634;2022-12-18T03:28:59;39.38;;;21.00;;
34711;SDS011;20941;42.408;25.634;2022-12-18T03:31:31;39.72;;;21.27;;
34711;SDS011;20941;42.408;25.634;2022-12-18T03:33:58;45.55;;;21.20;;
34711;SDS011;20941;42.408;25.634;2022-12-18T03:36:28;38.28;;;19.38;;
34711;SDS011;20941;42.408;25.634;2022-12-18T03:38:54;33.15;;;17.85;;
34711;SDS011;20941;42.408;25.634;2022-12-18T03:41:24;36.80;;;19.75;;
34711;SDS011;20941;42.408;25.634;2022-12-18T03:44:06;38.22;;;19.20;;
34711;SDS011;20941;42.408;25.634;2022-12-18T03:52:25;36.70;;;19.38;;
34711;SDS011;20941;42.408;25.634;2022-12-18T03:54:55;37.97;;;19.02;;
34711;SDS011;20941;42.408;25.634;2022-12-18T03:57:25;35.20;;;18.83;;
34711;SDS011;20941;42.408;25.634;2022-12-18T03:59:57;37.22;;;18.75;;
34711;SDS011;20941;42.408;25.634;2022-12-18T04:02:27;36.50;;;19.70;;
34711;SDS011;20941;42.408;25.634;2022-12-18T04:04:56;36.47;;;19.75;;
34711;SDS011;20941;42.408;25.634;2022-12-18T04:07:24;33.20;;;19.00;;
34711;SDS011;20941;42.408;25.634;2022-12-18T04:09:50;33.90;;;18.35;;
34711;SDS011;20941;42.408;25.634;2022-12-18T04:12:20;30.30;;;17.67;;
34711;SDS011;20941;42.408;25.634;2022-12-18T04:14:45;30.45;;;17.58;;
34711;SDS011;20941;42.408;25.634;2022-12-18T04:17:11;31.85;;;17.52;;
34711;SDS011;20941;42.408;25.634;2022-12-18T04:19:36;33.92;;;17.95;;
34711;SDS011;20941;42.408;25.634;2022-12-18T04:22:02;31.95;;;17.35;;
34711;SDS011;20941;42.408;25.634;2022-12-18T04:24:27;37.40;;;17.98;;
34711;SDS011;20941;42.408;25.634;2022-12-18T04:26:53;30.92;;;17.58;;
34711;SDS011;20941;42.408;25.634;2022-12-18T04:29:19;33.58;;;17.90;;
34711;SDS011;20941;42.408;25.634;2022-12-18T04:31:44;31.50;;;18.70;;
34711;SDS011;20941;42.408;25.634;2022-12-18T04:34:10;29.40;;;18.25;;
34711;SDS011;20941;42.408;25.634;2022-12-18T04:36:35;28.10;;;16.20;;
34711;SDS011;20941;42.408;25.634;2022-12-18T04:39:01;31.35;;;17.10;;
34711;SDS011;20941;42.408;25.634;2022-12-18T04:41:27;31.75;;;17.63;;
34711;SDS011;20941;42.408;25.634;2022-12-18T04:43:53;35.20;;;18.95;;
34711;SDS011;20941;42.408;25.634;2022-12-18T04:46:18;31.67;;;17.75;;
34711;SDS011;20941;42.408;25.634;2022-12-18T04:48:45;29.15;;;17.17;;
34711;SDS011;20941;42.408;25.634;2022-12-18T04:51:11;29.02;;;17.00;;
34711;SDS011;20941;42.408;25.634;2022-12-18T04:53:37;27.83;;;17.02;;
34711;SDS011;20941;42.408;25.634;2022-12-18T04:56:03;28.35;;;17.13;;
34711;SDS011;20941;42.408;25.634;2022-12-18T04:58:34;26.08;;;15.38;;
34711;SDS011;20941;42.408;25.634;2022-12-18T05:01:00;26.55;;;15.32;;
34711;SDS011;20941;42.408;25.634;2022-12-18T05:03:25;26.75;;;15.38;;
34711;SDS011;20941;42.408;25.634;2022-12-18T05:05:51;17.85;;;12.32;;
34711;SDS011;20941;42.408;25.634;2022-12-18T05:08:17;24.52;;;13.32;;
34711;SDS011;20941;42.408;25.634;2022-12-18T05:10:43;34.55;;;22.73;;
34711;SDS011;20941;42.408;25.634;2022-12-18T05:13:09;67.90;;;44.40;;
34711;SDS011;20941;42.408;25.634;2022-12-18T05:15:34;48.25;;;33.05;;
34711;SDS011;20941;42.408;25.634;2022-12-18T05:18:00;41.47;;;27.40;;
34711;SDS011;20941;42.408;25.634;2022-12-18T05:20:27;32.58;;;23.33;;
34711;SDS011;20941;42.408;25.634;2022-12-18T05:22:53;25.45;;;15.18;;
34711;SDS011;20941;42.408;25.634;2022-12-18T05:25:19;20.80;;;17.15;;
34711;SDS011;20941;42.408;25.634;2022-12-18T05:27:45;40.28;;;29.45;;
34711;SDS011;20941;42.408;25.634;2022-12-18T05:30:12;14.32;;;9.98;;
34711;SDS011;20941;42.408;25.634;2022-12-18T05:32:38;22.20;;;12.73;;
34711;SDS011;20941;42.408;25.634;2022-12-18T05:35:04;12.35;;;8.90;;
34711;SDS011;20941;42.408;25.634;2022-12-18T05:37:30;6.88;;;4.70;;
34711;SDS011;20941;42.408;25.634;2022-12-18T05:39:56;9.13;;;5.22;;
34711;SDS011;20941;42.408;25.634;2022-12-18T05:42:22;6.13;;;3.55;;
34711;SDS011;20941;42.408;25.634;2022-12-18T05:44:47;3.80;;;3.30;;
34711;SDS011;20941;42.408;25.634;2022-12-18T05:47:13;4.35;;;3.10;;
34711;SDS011;20941;42.408;25.634;2022-12-18T05:49:38;4.22;;;2.83;;
34711;SDS011;20941;42.408;25.634;2022-12-18T05:52:04;4.38;;;3.17;;
34711;SDS011;20941;42.408;25.634;2022-12-18T05:54:30;4.68;;;3.25;;
34711;SDS011;20941;42.408;25.634;2022-12-18T05:56:57;3.80;;;1.70;;
34711;SDS011;20941;42.408;25.634;2022-12-18T05:59:23;3.28;;;1.92;;
34711;SDS011;20941;42.408;25.634;2022-12-18T06:01:49;4.85;;;2.72;;
34711;SDS011;20941;42.408;25.634;2022-12-18T06:04:15;7.30;;;3.72;;
34711;SDS011;20941;42.408;25.634;2022-12-18T06:06:40;3.42;;;3.00;;
34711;SDS011;20941;42.408;25.634;2022-12-18T06:09:06;2.72;;;2.50;;
34711;SDS011;20941;42.408;25.634;2022-12-18T06:11:38;3.33;;;2.40;;
34711;SDS011;20941;42.408;25.634;2022-12-18T06:14:04;2.95;;;2.08;;
34711;SDS011;20941;42.408;25.634;2022-12-18T06:16:31;2.60;;;2.13;;
34711;SDS011;20941;42.408;25.634;2022-12-18T06:19:00;1.60;;;1.40;;
34711;SDS011;20941;42.408;25.634;2022-12-18T06:21:28;1.20;;;0.93;;
34711;SDS011;20941;42.408;25.634;2022-12-18T06:23:54;3.00;;;2.47;;
34711;SDS011;20941;42.408;25.634;2022-12-18T06:26:20;1.98;;;1.75;;
34711;SDS011;20941;42.408;25.634;2022-12-18T06:28:45;3.47;;;2.17;;
34711;SDS011;20941;42.408;25.634;2022-12-18T06:31:11;2.83;;;2.45;;
34711;SDS011;20941;42.408;25.634;2022-12-18T06:33:37;2.65;;;1.80;;
34711;SDS011;20941;42.408;25.634;2022-12-18T06:36:04;3.55;;;2.22;;
34711;SDS011;20941;42.408;25.634;2022-12-18T06:38:35;3.92;;;2.40;;
34711;SDS011;20941;42.408;25.634;2022-12-18T06:41:12;2.97;;;1.83;;
34711;SDS011;20941;42.408;25.634;2022-12-18T06:43:41;3.55;;;2.97;;
34711;SDS011;20941;42.408;25.634;2022-12-18T06:46:08;5.55;;;3.30;;
34711;SDS011;20941;42.408;25.634;2022-12-18T06:48:34;4.00;;;3.08;;
34711;SDS011;20941;42.408;25.634;2022-12-18T06:50:59;4.00;;;3.00;;
34711;SDS011;20941;42.408;25.634;2022-12-18T06:53:25;3.17;;;2.55;;
34711;SDS011;20941;42.408;25.634;2022-12-18T06:55:51;3.95;;;2.60;;
34711;SDS011;20941;42.408;25.634;2022-12-18T06:58:16;3.55;;;2.85;;
34711;SDS011;20941;42.408;25.634;2022-12-18T07:00:42;2.38;;;2.10;;
34711;SDS011;20941;42.408;25.634;2022-12-18T07:03:08;1.75;;;1.65;;
34711;SDS011;20941;42.408;25.634;2022-12-18T07:05:34;2.50;;;2.30;;
34711;SDS011;20941;42.408;25.634;2022-12-18T07:08:04;2.10;;;1.90;;
34711;SDS011;20941;42.408;25.634;2022-12-18T07:10:29;4.05;;;2.20;;
34711;SDS011;20941;42.408;25.634;2022-12-18T07:12:55;2.33;;;2.13;;
34711;SDS011;20941;42.408;25.634;2022-12-18T07:15:21;3.75;;;1.85;;
34711;SDS011;20941;42.408;25.634;2022-12-18T07:17:46;2.58;;;2.38;;
34711;SDS011;20941;42.408;25.634;2022-12-18T07:20:12;3.20;;;2.47;;
34711;SDS011;20941;42.408;25.634;2022-12-18T07:22:37;3.55;;;2.60;;
34711;SDS011;20941;42.408;25.634;2022-12-18T07:25:03;3.28;;;2.38;;
34711;SDS011;20941;42.408;25.634;2022-12-18T07:27:29;3.13;;;2.78;;
34711;SDS011;20941;42.408;25.634;2022-12-18T07:29:54;3.38;;;2.45;;
34711;SDS011;20941;42.408;25.634;2022-12-18T07:32:20;3.47;;;2.03;;
34711;SDS011;20941;42.408;25.634;2022-12-18T07:34:46;4.50;;;3.20;;
34711;SDS011;20941;42.408;25.634;2022-12-18T07:37:11;2.53;;;1.88;;
34711;SDS011;20941;42.408;25.634;2022-12-18T07:39:37;4.68;;;2.53;;
34711;SDS011;20941;42.408;25.634;2022-12-18T07:42:02;2.08;;;1.42;;
34711;SDS011;20941;42.408;25.634;2022-12-18T07:44:46;3.75;;;2.00;;
34711;SDS011;20941;42.408;25.634;2022-12-18T07:47:12;2.38;;;1.45;;
34711;SDS011;20941;42.408;25.634;2022-12-18T07:49:37;4.22;;;3.53;;
34711;SDS011;20941;42.408;25.634;2022-12-18T07:52:03;4.63;;;3.30;;
34711;SDS011;20941;42.408;25.634;2022-12-18T07:54:29;6.45;;;4.50;;
34711;SDS011;20941;42.408;25.634;2022-12-18T07:56:54;14.25;;;9.57;;
34711;SDS011;20941;42.408;25.634;2022-12-18T07:59:20;8.60;;;5.13;;
34711;SDS011;20941;42.408;25.634;2022-12-18T08:01:45;5.95;;;3.50;;
34711;SDS011;20941;42.408;25.634;2022-12-18T08:04:10;3.78;;;2.80;;
34711;SDS011;20941;42.408;25.634;2022-12-18T08:06:36;8.50;;;4.18;;
34711;SDS011;20941;42.408;25.634;2022-12-18T08:09:02;3.60;;;2.30;;
34711;SDS011;20941;42.408;25.634;2022-12-18T08:11:27;20.92;;;13.55;;
34711;SDS011;20941;42.408;25.634;2022-12-18T08:13:53;5.82;;;3.50;;
34711;SDS011;20941;42.408;25.634;2022-12-18T08:16:20;29.08;;;18.55;;
34711;SDS011;20941;42.408;25.634;2022-12-18T08:18:46;40.70;;;23.55;;
34711;SDS011;20941;42.408;25.634;2022-12-18T08:21:13;11.07;;;6.22;;
34711;SDS011;20941;42.408;25.634;2022-12-18T08:23:40;6.90;;;4.18;;
34711;SDS011;20941;42.408;25.634;2022-12-18T08:26:06;7.38;;;4.63;;
34711;SDS011;20941;42.408;25.634;2022-12-18T08:28:32;5.78;;;4.07;;
34711;SDS011;20941;42.408;25.634;2022-12-18T08:30:58;8.88;;;4.97;;
34711;SDS011;20941;42.408;25.634;2022-12-18T08:33:24;10.52;;;6.20;;
34711;SDS011;20941;42.408;25.634;2022-12-18T08:35:50;8.75;;;5.40;;
34711;SDS011;20941;42.408;25.634;2022-12-18T08:38:15;4.75;;;2.88;;
34711;SDS011;20941;42.408;25.634;2022-12-18T08:40:41;7.35;;;4.30;;
34711;SDS011;20941;42.408;25.634;2022-12-18T08:43:07;8.45;;;4.35;;
34711;SDS011;20941;42.408;25.634;2022-12-18T08:45:53;7.70;;;4.47;;
34711;SDS011;20941;42.408;25.634;2022-12-18T08:48:19;9.52;;;5.95;;
34711;SDS011;20941;42.408;25.634;2022-12-18T08:50:53;38.72;;;24.23;;
34711;SDS011;20941;42.408;25.634;2022-12-18T08:53:22;11.30;;;7.35;;
34711;SDS011;20941;42.408;25.634;2022-12-18T08:55:48;13.90;;;7.68;;
34711;SDS011;20941;42.408;25.634;2022-12-18T08:58:14;13.30;;;6.63;;
34711;SDS011;20941;42.408;25.634;2022-12-18T09:00:39;11.85;;;6.18;;
34711;SDS011;20941;42.408;25.634;2022-12-18T09:03:05;13.02;;;5.75;;
34711;SDS011;20941;42.408;25.634;2022-12-18T09:05:37;12.30;;;6.55;;
34711;SDS011;20941;42.408;25.634;2022-12-18T09:08:02;18.73;;;10.32;;
34711;SDS011;20941;42.408;25.634;2022-12-18T09:10:28;29.67;;;18.67;;
34711;SDS011;20941;42.408;25.634;2022-12-18T09:12:53;31.00;;;19.60;;
34711;SDS011;20941;42.408;25.634;2022-12-18T09:15:21;48.65;;;28.10;;
34711;SDS011;20941;42.408;25.634;2022-12-18T09:17:47;33.35;;;21.67;;
34711;SDS011;20941;42.408;25.634;2022-12-18T09:20:13;63.40;;;41.45;;
34711;SDS011;20941;42.408;25.634;2022-12-18T09:22:39;39.67;;;24.15;;
34711;SDS011;20941;42.408;25.634;2022-12-18T09:25:04;33.40;;;20.05;;
34711;SDS011;20941;42.408;25.634;2022-12-18T09:27:33;57.70;;;37.03;;
34711;SDS011;20941;42.408;25.634;2022-12-18T09:29:59;96.50;;;63.20;;
34711;SDS011;20941;42.408;25.634;2022-12-18T09:32:25;80.20;;;48.40;;
34711;SDS011;20941;42.408;25.634;2022-12-18T09:34:51;48.22;;;30.20;;
34711;SDS011;20941;42.408;25.634;2022-12-18T09:37:16;28.17;;;17.13;;
34711;SDS011;20941;42.408;25.634;2022-12-18T09:39:42;36.53;;;20.38;;
34711;SDS011;20941;42.408;25.634;2022-12-18T09:42:13;27.10;;;15.10;;
34711;SDS011;20941;42.408;25.634;2022-12-18T09:44:45;26.77;;;16.75;;
34711;SDS011;20941;42.408;25.634;2022-12-18T09:47:18;54.85;;;33.05;;
34711;SDS011;20941;42.408;25.634;2022-12-18T09:49:50;85.25;;;49.75;;
34711;SDS011;20941;42.408;25.634;2022-12-18T09:54:52;113.32;;;69.03;;
34711;SDS011;20941;42.408;25.634;2022-12-18T09:57:23;90.05;;;54.47;;
34711;SDS011;20941;42.408;25.634;2022-12-18T09:59:55;78.15;;;45.25;;
34711;SDS011;20941;42.408;25.634;2022-12-18T10:02:25;19.13;;;11.25;;
34711;SDS011;20941;42.408;25.634;2022-12-18T10:04:59;18.15;;;10.70;;
34711;SDS011;20941;42.408;25.634;2022-12-18T10:07:39;16.03;;;8.87;;
34711;SDS011;20941;42.408;25.634;2022-12-18T10:10:26;15.20;;;9.40;;
34711;SDS011;20941;42.408;25.634;2022-12-18T10:13:18;16.08;;;8.95;;
34711;SDS011;20941;42.408;25.634;2022-12-18T10:16:00;15.38;;;9.07;;
34711;SDS011;20941;42.408;25.634;2022-12-18T10:21:20;17.02;;;8.68;;
34711;SDS011;20941;42.408;25.634;2022-12-18T10:26:25;12.45;;;6.85;;
34711;SDS011;20941;42.408;25.634;2022-12-18T10:28:50;16.15;;;10.82;;
34711;SDS011;20941;42.408;25.634;2022-12-18T10:31:19;12.90;;;7.70;;
34711;SDS011;20941;42.408;25.634;2022-12-18T10:33:47;9.95;;;6.43;;
34711;SDS011;20941;42.408;25.634;2022-12-18T10:36:13;13.13;;;6.88;;
34711;SDS011;20941;42.408;25.634;2022-12-18T10:38:39;10.93;;;7.25;;
34711;SDS011;20941;42.408;25.634;2022-12-18T10:41:26;15.38;;;7.50;;
34711;SDS011;20941;42.408;25.634;2022-12-18T10:46:51;13.20;;;7.72;;
34711;SDS011;20941;42.408;25.634;2022-12-18T10:49:25;14.05;;;7.95;;
34711;SDS011;20941;42.408;25.634;2022-12-18T10:57:31;13.52;;;7.10;;
34711;SDS011;20941;42.408;25.634;2022-12-18T11:00:00;12.95;;;6.95;;
34711;SDS011;20941;42.408;25.634;2022-12-18T11:02:44;11.32;;;7.13;;
34711;SDS011;20941;42.408;25.634;2022-12-18T11:07:54;11.27;;;6.85;;
34711;SDS011;20941;42.408;25.634;2022-12-18T11:10:22;11.70;;;6.45;;
34711;SDS011;20941;42.408;25.634;2022-12-18T11:12:51;13.30;;;7.75;;
34711;SDS011;20941;42.408;25.634;2022-12-18T11:15:19;14.68;;;8.20;;
34711;SDS011;20941;42.408;25.634;2022-12-18T11:17:54;24.30;;;12.93;;
34711;SDS011;20941;42.408;25.634;2022-12-18T11:20:27;33.97;;;23.48;;
34711;SDS011;20941;42.408;25.634;2022-12-18T11:23:03;33.53;;;20.73;;
34711;SDS011;20941;42.408;25.634;2022-12-18T11:25:31;13.68;;;7.93;;
34711;SDS011;20941;42.408;25.634;2022-12-18T11:27:58;14.95;;;8.32;;
34711;SDS011;20941;42.408;25.634;2022-12-18T11:30:29;12.38;;;8.05;;
34711;SDS011;20941;42.408;25.634;2022-12-18T11:35:35;17.38;;;9.65;;
34711;SDS011;20941;42.408;25.634;2022-12-18T11:40:44;18.60;;;10.63;;
34711;SDS011;20941;42.408;25.634;2022-12-18T11:43:31;17.58;;;10.90;;
34711;SDS011;20941;42.408;25.634;2022-12-18T11:49:17;50.10;;;30.27;;
34711;SDS011;20941;42.408;25.634;2022-12-18T11:54:44;29.33;;;17.23;;
34711;SDS011;20941;42.408;25.634;2022-12-18T12:22:43;17.73;;;8.65;;
34711;SDS011;20941;42.408;25.634;2022-12-18T12:33:36;12.27;;;7.28;;
34711;SDS011;20941;42.408;25.634;2022-12-18T12:38:43;14.00;;;8.10;;
34711;SDS011;20941;42.408;25.634;2022-12-18T12:41:26;12.90;;;7.03;;
34711;SDS011;20941;42.408;25.634;2022-12-18T12:44:20;11.63;;;7.38;;
34711;SDS011;20941;42.408;25.634;2022-12-18T12:46:50;12.05;;;7.13;;
34711;SDS011;20941;42.408;25.634;2022-12-18T12:49:18;13.55;;;8.10;;
34711;SDS011;20941;42.408;25.634;2022-12-18T12:51:50;12.18;;;8.38;;
34711;SDS011;20941;42.408;25.634;2022-12-18T12:54:24;13.55;;;8.43;;
34711;SDS011;20941;42.408;25.634;2022-12-18T12:57:12;12.70;;;7.35;;
34711;SDS011;20941;42.408;25.634;2022-12-18T13:02:39;12.80;;;7.47;;
34711;SDS011;20941;42.408;25.634;2022-12-18T13:08:02;12.32;;;7.25;;
34711;SDS011;20941;42.408;25.634;2022-12-18T13:10:32;12.07;;;6.68;;
34711;SDS011;20941;42.408;25.634;2022-12-18T13:13:03;11.68;;;6.50;;
34711;SDS011;20941;42.408;25.634;2022-12-18T13:15:47;12.82;;;6.50;;
34711;SDS011;20941;42.408;25.634;2022-12-18T13:18:28;9.55;;;6.05;;
34711;SDS011;20941;42.408;25.634;2022-12-18T13:36:44;10.82;;;7.13;;
34711;SDS011;20941;42.408;25.634;2022-12-18T13:41:39;12.93;;;8.15;;
34711;SDS011;20941;42.408;25.634;2022-12-18T13:46:44;8.48;;;4.90;;
34711;SDS011;20941;42.408;25.634;2022-12-18T13:51:41;8.30;;;4.97;;
34711;SDS011;20941;42.408;25.634;2022-12-18T13:56:47;6.82;;;5.38;;
34711;SDS011;20941;42.408;25.634;2022-12-18T14:01:51;10.32;;;5.63;;
34711;SDS011;20941;42.408;25.634;2022-12-18T14:06:54;11.38;;;7.10;;
34711;SDS011;20941;42.408;25.634;2022-12-18T14:09:27;12.68;;;7.70;;
34711;SDS011;20941;42.408;25.634;2022-12-18T14:11:55;20.23;;;9.25;;
34711;SDS011;20941;42.408;25.634;2022-12-18T14:14:43;16.08;;;8.90;;
34711;SDS011;20941;42.408;25.634;2022-12-18T14:17:12;16.65;;;9.43;;
34711;SDS011;20941;42.408;25.634;2022-12-18T14:19:46;17.52;;;9.80;;
34711;SDS011;20941;42.408;25.634;2022-12-18T14:22:18;19.23;;;9.35;;
34711;SDS011;20941;42.408;25.634;2022-12-18T14:24:47;17.92;;;9.00;;
34711;SDS011;20941;42.408;25.634;2022-12-18T14:27:29;18.70;;;9.85;;
34711;SDS011;20941;42.408;25.634;2022-12-18T14:29:54;14.18;;;8.57;;
34711;SDS011;20941;42.408;25.634;2022-12-18T14:32:20;15.68;;;8.10;;
34711;SDS011;20941;42.408;25.634;2022-12-18T14:34:49;14.15;;;8.70;;
34711;SDS011;20941;42.408;25.634;2022-12-18T14:37:17;14.50;;;8.73;;
34711;SDS011;20941;42.408;25.634;2022-12-18T14:39:53;17.55;;;9.80;;
34711;SDS011;20941;42.408;25.634;2022-12-18T14:44:47;15.20;;;8.95;;
34711;SDS011;20941;42.408;25.634;2022-12-18T14:47:14;15.02;;;8.43;;
34711;SDS011;20941;42.408;25.634;2022-12-18T14:49:40;15.20;;;8.63;;
34711;SDS011;20941;42.408;25.634;2022-12-18T14:52:17;13.45;;;8.65;;
34711;SDS011;20941;42.408;25.634;2022-12-18T14:54:50;14.43;;;9.63;;
34711;SDS011;20941;42.408;25.634;2022-12-18T14:57:29;19.92;;;11.23;;
34711;SDS011;20941;42.408;25.634;2022-12-18T15:00:05;20.17;;;11.48;;
34711;SDS011;20941;42.408;25.634;2022-12-18T15:02:39;22.02;;;12.05;;
34711;SDS011;20941;42.408;25.634;2022-12-18T15:05:14;23.08;;;13.68;;
34711;SDS011;20941;42.408;25.634;2022-12-18T15:07:52;24.55;;;12.68;;
34711;SDS011;20941;42.408;25.634;2022-12-18T15:10:24;30.15;;;15.45;;
34711;SDS011;20941;42.408;25.634;2022-12-18T15:17:58;26.13;;;14.48;;
34711;SDS011;20941;42.408;25.634;2022-12-18T15:20:23;31.73;;;15.20;;
34711;SDS011;20941;42.408;25.634;2022-12-18T15:22:49;29.17;;;14.45;;
34711;SDS011;20941;42.408;25.634;2022-12-18T15:25:49;29.58;;;15.20;;
34711;SDS011;20941;42.408;25.634;2022-12-18T15:28:21;28.75;;;14.93;;
34711;SDS011;20941;42.408;25.634;2022-12-18T15:31:03;30.38;;;16.08;;
34711;SDS011;20941;42.408;25.634;2022-12-18T15:33:32;34.42;;;16.98;;
34711;SDS011;20941;42.408;25.634;2022-12-18T15:36:00;36.65;;;17.10;;
34711;SDS011;20941;42.408;25.634;2022-12-18T15:38:28;37.35;;;16.45;;
34711;SDS011;20941;42.408;25.634;2022-12-18T15:40:54;31.08;;;15.35;;
34711;SDS011;20941;42.408;25.634;2022-12-18T15:43:21;31.20;;;16.27;;
34711;SDS011;20941;42.408;25.634;2022-12-18T15:46:04;34.10;;;17.35;;
34711;SDS011;20941;42.408;25.634;2022-12-18T15:48:32;34.83;;;17.67;;
34711;SDS011;20941;42.408;25.634;2022-12-18T15:51:00;37.15;;;17.38;;
34711;SDS011;20941;42.408;25.634;2022-12-18T15:53:27;36.63;;;18.30;;
34711;SDS011;20941;42.408;25.634;2022-12-18T15:55:57;38.00;;;18.80;;
34711;SDS011;20941;42.408;25.634;2022-12-18T15:58:41;40.92;;;18.90;;
34711;SDS011;20941;42.408;25.634;2022-12-18T16:01:07;38.28;;;18.70;;
34711;SDS011;20941;42.408;25.634;2022-12-18T16:03:35;36.72;;;17.80;;
34711;SDS011;20941;42.408;25.634;2022-12-18T16:06:00;37.55;;;19.33;;
34711;SDS011;20941;42.408;25.634;2022-12-18T16:08:27;41.80;;;18.63;;
34711;SDS011;20941;42.408;25.634;2022-12-18T16:10:55;37.40;;;18.25;;
34711;SDS011;20941;42.408;25.634;2022-12-18T16:13:21;33.35;;;16.48;;
34711;SDS011;20941;42.408;25.634;2022-12-18T16:15:47;36.22;;;17.80;;
34711;SDS011;20941;42.408;25.634;2022-12-18T16:18:13;37.58;;;18.20;;
34711;SDS011;20941;42.408;25.634;2022-12-18T16:20:38;33.53;;;16.77;;
34711;SDS011;20941;42.408;25.634;2022-12-18T16:23:04;37.10;;;18.70;;
34711;SDS011;20941;42.408;25.634;2022-12-18T16:25:30;40.97;;;19.13;;
34711;SDS011;20941;42.408;25.634;2022-12-18T16:27:55;37.55;;;18.33;;
34711;SDS011;20941;42.408;25.634;2022-12-18T16:30:22;39.15;;;18.35;;
34711;SDS011;20941;42.408;25.634;2022-12-18T16:32:53;35.85;;;17.92;;
34711;SDS011;20941;42.408;25.634;2022-12-18T16:35:19;36.60;;;18.13;;
34711;SDS011;20941;42.408;25.634;2022-12-18T16:37:45;41.75;;;19.58;;